createdAt,value
2022-09-30T00:00:40.390Z,6.19
2022-09-30T00:01:40.369Z,6.16
2022-09-30T00:02:40.324Z,6.22
2022-09-30T00:03:40.221Z,6.30
2022-09-30T00:04:40.168Z,6.28
2022-09-30T00:05:40.110Z,6.20
2022-09-30T00:06:40.046Z,6.19
2022-09-30T00:07:39.990Z,6.14
2022-09-30T00:08:39.957Z,6.12
2022-09-30T00:09:39.942Z,6.08
2022-09-30T00:10:39.816Z,6.14
2022-09-30T00:11:39.758Z,6.09
2022-09-30T00:12:39.706Z,6.05
2022-09-30T00:13:39.647Z,6.01
2022-09-30T00:14:39.607Z,6.14
2022-09-30T00:15:39.529Z,6.02
2022-09-30T00:16:39.539Z,6.05
2022-09-30T00:17:39.415Z,6.02
2022-09-30T00:18:39.358Z,6.04
2022-09-30T00:19:39.326Z,6.02
2022-09-30T00:20:39.246Z,5.99
2022-09-30T00:21:39.186Z,6.04
2022-09-30T00:22:39.130Z,6.11
2022-09-30T00:23:39.071Z,6.07
2022-09-30T00:24:39.016Z,6.14
2022-09-30T00:25:38.987Z,6.16
2022-09-30T00:26:38.903Z,6.22
2022-09-30T00:27:38.895Z,6.16
2022-09-30T00:28:38.790Z,6.05
2022-09-30T00:29:38.728Z,6.07
2022-09-30T00:30:38.675Z,6.04
2022-09-30T00:31:38.698Z,5.99
2022-09-30T00:32:38.556Z,6.04
2022-09-30T00:33:38.503Z,5.99
2022-09-30T00:34:38.443Z,6.01
2022-09-30T00:35:38.384Z,6.01
2022-09-30T00:36:38.358Z,5.99
2022-09-30T00:37:38.274Z,5.90
2022-09-30T00:38:38.230Z,5.89
2022-09-30T00:39:38.162Z,5.90
2022-09-30T00:40:38.108Z,5.84
2022-09-30T00:41:38.041Z,5.86
2022-09-30T00:42:38.030Z,5.90
2022-09-30T00:43:37.927Z,5.93
2022-09-30T00:44:37.870Z,5.94
2022-09-30T00:45:37.814Z,5.87
2022-09-30T00:46:42.256Z,5.94
2022-09-30T00:47:37.705Z,5.89
2022-09-30T00:48:37.685Z,5.84
2022-09-30T00:49:37.582Z,5.86
2022-09-30T00:50:37.528Z,5.90
2022-09-30T00:51:37.466Z,5.87
2022-09-30T00:52:37.416Z,5.89
2022-09-30T00:53:37.353Z,5.87
2022-09-30T00:54:37.312Z,5.97
2022-09-30T00:55:37.243Z,5.89
2022-09-30T00:56:37.183Z,5.93
2022-09-30T00:57:37.125Z,5.93
2022-09-30T00:58:37.069Z,5.90
2022-09-30T00:59:37.030Z,5.90
2022-09-30T01:00:37.028Z,5.87
2022-09-30T01:01:36.931Z,5.90
2022-09-30T01:02:36.838Z,5.89
2022-09-30T01:03:36.780Z,5.90
2022-09-30T01:04:36.767Z,6.01
2022-09-30T01:05:36.675Z,5.98
2022-09-30T01:06:36.608Z,5.93
2022-09-30T01:07:36.552Z,5.86
2022-09-30T01:08:36.532Z,5.98
2022-09-30T01:09:36.457Z,5.97
2022-09-30T01:10:36.404Z,6.07
2022-09-30T01:11:36.321Z,6.01
2022-09-30T01:12:36.265Z,6.04
2022-09-30T01:13:36.209Z,6.07
2022-09-30T01:14:36.148Z,6.12
2022-09-30T01:15:36.090Z,6.12
2022-09-30T01:16:36.153Z,6.17
2022-09-30T01:17:36.000Z,6.05
2022-09-30T01:18:35.919Z,6.01
2022-09-30T01:19:35.864Z,6.07
2022-09-30T01:20:35.804Z,6.05
2022-09-30T01:21:35.746Z,6.11
2022-09-30T01:22:40.013Z,6.07
2022-09-30T01:23:35.632Z,6.07
2022-09-30T01:24:35.573Z,6.08
2022-09-30T01:25:35.518Z,6.04
2022-09-30T01:26:35.459Z,6.08
2022-09-30T01:27:35.403Z,6.05
2022-09-30T01:28:35.372Z,5.98
2022-09-30T01:29:35.290Z,6.04
2022-09-30T01:30:35.232Z,5.97
2022-09-30T01:31:35.230Z,6.04
2022-09-30T01:32:35.142Z,6.01
2022-09-30T01:33:35.058Z,6.01
2022-09-30T01:34:35.026Z,6.01
2022-09-30T01:35:34.944Z,6.05
2022-09-30T01:36:34.885Z,5.93
2022-09-30T01:37:34.828Z,5.94
2022-09-30T01:38:34.771Z,5.89
2022-09-30T01:39:34.744Z,5.93
2022-09-30T01:40:34.665Z,5.87
2022-09-30T01:41:34.601Z,5.91
2022-09-30T01:42:34.542Z,5.91
2022-09-30T01:43:34.484Z,5.83
2022-09-30T01:44:34.424Z,5.84
2022-09-30T01:45:34.388Z,5.80
2022-09-30T01:46:34.353Z,5.79
2022-09-30T01:47:34.256Z,5.72
2022-09-30T01:48:34.198Z,5.72
2022-09-30T01:49:34.137Z,5.84
2022-09-30T01:50:34.108Z,5.83
2022-09-30T01:51:34.027Z,5.87
2022-09-30T01:52:33.967Z,5.93
2022-09-30T01:53:33.911Z,5.91
2022-09-30T01:54:33.854Z,5.94
2022-09-30T01:55:33.795Z,6.04
2022-09-30T01:56:33.765Z,5.97
2022-09-30T01:57:33.685Z,6.05
2022-09-30T01:58:33.625Z,5.90
2022-09-30T01:59:33.567Z,5.90
2022-09-30T02:00:33.532Z,5.91
2022-09-30T02:01:33.481Z,5.89
2022-09-30T02:02:33.395Z,5.84
2022-09-30T02:03:33.335Z,5.83
2022-09-30T02:04:33.281Z,5.84
2022-09-30T02:05:33.223Z,5.87
2022-09-30T02:06:33.165Z,5.84
2022-09-30T02:07:33.126Z,5.79
2022-09-30T02:08:33.052Z,5.82
2022-09-30T02:09:33.048Z,5.84
2022-09-30T02:10:32.933Z,5.83
2022-09-30T02:11:32.878Z,5.82
2022-09-30T02:12:32.845Z,5.84
2022-09-30T02:13:32.778Z,5.89
2022-09-30T02:14:32.707Z,5.87
2022-09-30T02:15:32.647Z,5.89
2022-09-30T02:16:32.683Z,5.94
2022-09-30T02:17:32.531Z,5.87
2022-09-30T02:18:32.495Z,5.93
2022-09-30T02:19:32.416Z,5.97
2022-09-30T02:20:32.359Z,5.98
2022-09-30T02:21:32.300Z,5.97
2022-09-30T02:22:32.243Z,5.91
2022-09-30T02:23:32.214Z,5.93
2022-09-30T02:24:32.165Z,5.87
2022-09-30T02:25:32.087Z,5.93
2022-09-30T02:26:32.015Z,5.89
2022-09-30T02:27:31.956Z,6.01
2022-09-30T02:28:31.916Z,5.91
2022-09-30T02:29:31.840Z,5.97
2022-09-30T02:30:31.787Z,5.83
2022-09-30T02:31:31.809Z,5.86
2022-09-30T02:32:31.669Z,5.87
2022-09-30T02:33:31.637Z,5.87
2022-09-30T02:34:31.555Z,5.89
2022-09-30T02:35:31.496Z,5.94
2022-09-30T02:36:31.442Z,6.05
2022-09-30T02:37:31.381Z,6.07
2022-09-30T02:38:31.325Z,6.04
2022-09-30T02:39:31.286Z,5.97
2022-09-30T02:40:31.210Z,6.05
2022-09-30T02:41:31.152Z,6.05
2022-09-30T02:42:31.095Z,6.02
2022-09-30T02:43:31.041Z,6.05
2022-09-30T02:44:31.104Z,5.99
2022-09-30T02:45:30.924Z,6.04
2022-09-30T02:46:30.919Z,6.09
2022-09-30T02:47:30.809Z,6.05
2022-09-30T02:48:30.749Z,6.04
2022-09-30T02:49:30.690Z,6.02
2022-09-30T02:50:30.653Z,6.07
2022-09-30T02:51:30.578Z,6.05
2022-09-30T02:52:30.520Z,6.05
2022-09-30T02:53:30.462Z,6.04
2022-09-30T02:54:30.404Z,6.05
2022-09-30T02:55:30.373Z,6.04
2022-09-30T02:56:30.292Z,6.04
2022-09-30T02:57:30.230Z,6.01
2022-09-30T02:58:30.178Z,5.97
2022-09-30T02:59:30.117Z,5.94
2022-09-30T03:00:30.091Z,6.02
2022-09-30T03:01:30.054Z,6.04
2022-09-30T03:02:29.968Z,6.02
2022-09-30T03:03:29.887Z,6.01
2022-09-30T03:04:29.830Z,6.04
2022-09-30T03:05:29.782Z,6.01
2022-09-30T03:06:29.735Z,6.11
2022-09-30T03:07:29.660Z,6.16
2022-09-30T03:08:29.604Z,6.05
2022-09-30T03:09:29.572Z,6.07
2022-09-30T03:10:29.486Z,6.05
2022-09-30T03:11:29.452Z,6.07
2022-09-30T03:12:29.371Z,6.02
2022-09-30T03:13:29.312Z,6.07
2022-09-30T03:14:29.256Z,6.05
2022-09-30T03:15:29.196Z,6.07
2022-09-30T03:16:29.188Z,5.98
2022-09-30T03:17:29.108Z,5.93
2022-09-30T03:18:29.028Z,6.07
2022-09-30T03:19:28.969Z,6.05
2022-09-30T03:20:28.911Z,6.05
2022-09-30T03:21:28.851Z,6.07
2022-09-30T03:22:28.798Z,6.01
2022-09-30T03:23:28.764Z,6.01
2022-09-30T03:24:28.683Z,5.99
2022-09-30T03:25:28.622Z,6.04
2022-09-30T03:26:28.568Z,6.14
2022-09-30T03:27:28.510Z,6.02
2022-09-30T03:28:28.453Z,6.07
2022-09-30T03:29:28.420Z,6.14
2022-09-30T03:30:28.339Z,6.12
2022-09-30T03:31:28.417Z,6.14
2022-09-30T03:32:28.237Z,6.02
2022-09-30T03:33:28.163Z,5.97
2022-09-30T03:34:28.108Z,6.11
2022-09-30T03:35:28.075Z,6.07
2022-09-30T03:36:28.001Z,6.02
2022-09-30T03:37:27.937Z,5.93
2022-09-30T03:38:27.880Z,6.04
2022-09-30T03:39:27.820Z,5.98
2022-09-30T03:40:27.761Z,5.90
2022-09-30T03:41:27.736Z,5.97
2022-09-30T03:42:27.650Z,5.91
2022-09-30T03:43:27.597Z,5.89
2022-09-30T03:44:27.558Z,5.87
2022-09-30T03:45:27.502Z,5.90
2022-09-30T03:46:27.500Z,5.89
2022-09-30T03:47:27.363Z,5.86
2022-09-30T03:48:27.302Z,5.84
2022-09-30T03:49:27.253Z,5.87
2022-09-30T03:50:27.190Z,5.94
2022-09-30T03:51:27.151Z,5.86
2022-09-30T03:52:27.074Z,5.90
2022-09-30T03:53:27.025Z,5.89
2022-09-30T03:54:26.959Z,5.90
2022-09-30T03:55:26.903Z,5.87
2022-09-30T03:56:26.869Z,5.90
2022-09-30T03:57:26.784Z,5.89
2022-09-30T03:58:26.726Z,5.91
2022-09-30T03:59:26.671Z,5.91
2022-09-30T04:00:26.724Z,5.82
2022-09-30T04:01:26.609Z,5.73
2022-09-30T04:02:26.614Z,5.80
2022-09-30T04:03:26.439Z,5.80
2022-09-30T04:04:26.383Z,5.61
2022-09-30T04:05:26.325Z,5.73
2022-09-30T04:06:26.268Z,5.76
2022-09-30T04:07:26.207Z,5.76
2022-09-30T04:08:26.194Z,5.68
2022-09-30T04:09:26.317Z,5.76
2022-09-30T04:10:26.040Z,5.83
2022-09-30T04:11:25.979Z,5.80
2022-09-30T04:12:25.924Z,5.87
2022-09-30T04:13:25.860Z,5.83
2022-09-30T04:14:25.825Z,5.87
2022-09-30T04:15:25.747Z,5.83
2022-09-30T04:16:25.753Z,5.86
2022-09-30T04:17:25.632Z,5.84
2022-09-30T04:18:25.574Z,5.84
2022-09-30T04:19:25.605Z,5.76
2022-09-30T04:20:25.459Z,5.79
2022-09-30T04:21:25.405Z,5.82
2022-09-30T04:22:26.563Z,5.83
2022-09-30T04:23:25.309Z,5.84
2022-09-30T04:24:25.229Z,5.82
2022-09-30T04:25:25.213Z,5.86
2022-09-30T04:26:25.122Z,5.84
2022-09-30T04:27:25.057Z,5.80
2022-09-30T04:28:24.998Z,5.79
2022-09-30T04:29:24.942Z,5.83
2022-09-30T04:30:28.075Z,5.71
2022-09-30T04:31:25.556Z,5.75
2022-09-30T04:32:24.768Z,5.64
2022-09-30T04:33:24.711Z,5.69
2022-09-30T04:34:24.652Z,5.73
2022-09-30T04:35:24.593Z,5.66
2022-09-30T04:36:24.573Z,5.64
2022-09-30T04:37:24.479Z,5.65
2022-09-30T04:38:24.420Z,5.57
2022-09-30T04:39:24.368Z,5.59
2022-09-30T04:40:24.308Z,5.56
2022-09-30T04:41:24.250Z,5.57
2022-09-30T04:42:24.217Z,5.57
2022-09-30T04:43:24.134Z,5.61
2022-09-30T04:44:24.078Z,5.59
2022-09-30T04:45:24.055Z,5.54
2022-09-30T04:46:23.960Z,5.53
2022-09-30T04:47:23.904Z,5.56
2022-09-30T04:48:23.866Z,5.64
2022-09-30T04:49:23.909Z,5.56
2022-09-30T04:50:23.731Z,5.53
2022-09-30T04:51:23.670Z,5.65
2022-09-30T04:52:23.616Z,5.66
2022-09-30T04:53:23.613Z,5.61
2022-09-30T04:54:23.496Z,5.57
2022-09-30T04:55:23.440Z,5.64
2022-09-30T04:56:23.382Z,5.62
2022-09-30T04:57:23.324Z,5.61
2022-09-30T04:58:36.845Z,5.68
2022-09-30T04:59:23.346Z,5.65
2022-09-30T05:00:23.151Z,5.61
2022-09-30T05:01:23.188Z,5.48
2022-09-30T05:02:23.072Z,5.57
2022-09-30T05:03:22.982Z,5.53
2022-09-30T05:04:22.944Z,5.53
2022-09-30T05:05:22.864Z,5.47
2022-09-30T05:06:22.807Z,5.51
2022-09-30T05:07:22.750Z,5.47
2022-09-30T05:08:22.692Z,5.47
2022-09-30T05:09:23.003Z,5.48
2022-09-30T05:10:22.607Z,5.38
2022-09-30T05:11:22.517Z,5.38
2022-09-30T05:12:22.495Z,5.38
2022-09-30T05:13:22.399Z,5.35
2022-09-30T05:14:22.348Z,5.39
2022-09-30T05:15:22.287Z,5.50
2022-09-30T05:16:22.321Z,5.39
2022-09-30T05:17:22.170Z,5.48
2022-09-30T05:18:22.114Z,5.51
2022-09-30T05:19:22.173Z,5.53
2022-09-30T05:20:21.998Z,5.61
2022-09-30T05:21:21.975Z,5.56
2022-09-30T05:22:21.881Z,5.65
2022-09-30T05:23:21.824Z,5.62
2022-09-30T05:24:21.815Z,5.69
2022-09-30T05:25:21.708Z,5.62
2022-09-30T05:26:21.651Z,5.62
2022-09-30T05:27:21.619Z,5.62
2022-09-30T05:28:21.535Z,5.59
2022-09-30T05:29:21.475Z,5.53
2022-09-30T05:30:21.417Z,5.61
2022-09-30T05:31:21.408Z,5.51
2022-09-30T05:32:21.307Z,5.57
2022-09-30T05:33:21.268Z,5.56
2022-09-30T05:34:21.184Z,5.44
2022-09-30T05:35:21.130Z,5.46
2022-09-30T05:36:21.072Z,5.35
2022-09-30T05:37:21.015Z,5.35
2022-09-30T05:38:20.989Z,5.26
2022-09-30T05:39:20.986Z,5.39
2022-09-30T05:40:20.842Z,5.43
2022-09-30T05:41:20.785Z,5.38
2022-09-30T05:42:20.727Z,5.38
2022-09-30T05:43:20.666Z,5.41
2022-09-30T05:44:20.638Z,5.46
2022-09-30T05:45:20.551Z,5.43
2022-09-30T05:46:20.554Z,5.48
2022-09-30T05:47:20.437Z,5.61
2022-09-30T05:48:20.389Z,5.50
2022-09-30T05:49:20.373Z,5.47
2022-09-30T05:50:20.282Z,5.47
2022-09-30T05:51:20.219Z,5.46
2022-09-30T05:52:20.148Z,5.46
2022-09-30T05:53:20.089Z,5.56
2022-09-30T05:54:20.038Z,5.57
2022-09-30T05:55:19.999Z,5.54
2022-09-30T05:56:19.918Z,5.62
2022-09-30T05:57:19.859Z,5.50
2022-09-30T05:58:19.800Z,5.57
2022-09-30T05:59:20.562Z,5.47
2022-09-30T06:00:19.690Z,5.62
2022-09-30T06:01:19.652Z,5.59
2022-09-30T06:02:19.692Z,5.61
2022-09-30T06:03:19.511Z,5.68
2022-09-30T06:04:19.454Z,5.72
2022-09-30T06:05:19.423Z,5.73
2022-09-30T06:06:19.376Z,5.69
2022-09-30T06:07:19.282Z,5.73
2022-09-30T06:08:19.223Z,5.66
2022-09-30T06:09:19.245Z,5.71
2022-09-30T06:10:19.111Z,5.75
2022-09-30T06:11:19.058Z,5.79
2022-09-30T06:12:19.011Z,5.72
2022-09-30T06:13:18.934Z,5.73
2022-09-30T06:14:18.887Z,5.76
2022-09-30T06:15:18.821Z,5.80
2022-09-30T06:16:18.908Z,5.84
2022-09-30T06:17:18.726Z,5.87
2022-09-30T06:18:18.644Z,5.97
2022-09-30T06:19:18.608Z,5.94
2022-09-30T06:20:18.528Z,6.01
2022-09-30T06:21:18.470Z,6.01
2022-09-30T06:22:18.439Z,6.04
2022-09-30T06:23:18.379Z,6.05
2022-09-30T06:24:18.296Z,6.07
2022-09-30T06:25:18.239Z,6.07
2022-09-30T06:26:18.184Z,6.12
2022-09-30T06:27:18.124Z,6.12
2022-09-30T06:28:18.069Z,6.19
2022-09-30T06:29:18.070Z,6.11
2022-09-30T06:30:17.960Z,6.14
2022-09-30T06:31:17.991Z,6.27
2022-09-30T06:32:17.841Z,6.16
2022-09-30T06:33:17.779Z,6.24
2022-09-30T06:34:17.739Z,6.22
2022-09-30T06:35:17.664Z,6.30
2022-09-30T06:36:17.607Z,6.27
2022-09-30T06:37:17.549Z,6.36
2022-09-30T06:38:17.492Z,6.49
2022-09-30T06:39:17.461Z,6.45
2022-09-30T06:40:17.380Z,6.48
2022-09-30T06:41:17.316Z,6.56
2022-09-30T06:42:17.261Z,6.56
2022-09-30T06:43:17.203Z,6.63
2022-09-30T06:44:17.147Z,6.67
2022-09-30T06:45:26.650Z,6.77
2022-09-30T06:46:23.776Z,6.81
2022-09-30T06:47:24.261Z,6.88
2022-09-30T06:48:21.869Z,6.97
2022-09-30T06:49:16.862Z,7.02
2022-09-30T06:50:24.497Z,7.05
2022-09-30T06:51:16.767Z,7.10
2022-09-30T06:52:16.695Z,7.17
2022-09-30T06:53:16.633Z,7.28
2022-09-30T06:54:16.756Z,7.29
2022-09-30T06:55:16.517Z,7.31
2022-09-30T06:56:16.479Z,7.36
2022-09-30T06:57:16.404Z,7.47
2022-09-30T06:58:16.345Z,7.45
2022-09-30T06:59:16.290Z,7.56
2022-09-30T07:00:16.234Z,7.56
2022-09-30T07:01:16.297Z,7.75
2022-09-30T07:02:16.218Z,7.80
2022-09-30T07:03:16.062Z,7.82
2022-09-30T07:04:16.020Z,7.82
2022-09-30T07:05:15.951Z,7.97
2022-09-30T07:06:15.893Z,8.06
2022-09-30T07:07:15.853Z,8.16
2022-09-30T07:08:15.780Z,8.18
2022-09-30T07:09:15.827Z,8.19
2022-09-30T07:10:15.661Z,8.31
2022-09-30T07:11:15.607Z,8.31
2022-09-30T07:12:15.593Z,8.42
2022-09-30T07:13:15.494Z,8.46
2022-09-30T07:14:15.440Z,8.60
2022-09-30T07:15:15.384Z,8.63
2022-09-30T07:16:15.423Z,8.67
2022-09-30T07:17:15.270Z,8.64
2022-09-30T07:18:15.229Z,8.71
2022-09-30T07:19:15.164Z,8.84
2022-09-30T07:20:15.098Z,8.99
2022-09-30T07:21:15.042Z,9.13
2022-09-30T07:22:14.990Z,9.26
2022-09-30T07:23:14.959Z,9.32
2022-09-30T07:24:14.877Z,9.55
2022-09-30T07:25:14.823Z,9.65
2022-09-30T07:26:14.772Z,9.68
2022-09-30T07:27:14.714Z,9.69
2022-09-30T07:28:14.654Z,9.72
2022-09-30T07:29:14.676Z,9.83
2022-09-30T07:30:24.555Z,10.01
2022-09-30T07:31:32.057Z,10.16
2022-09-30T07:32:14.638Z,10.40
2022-09-30T07:33:14.377Z,10.59
2022-09-30T07:34:14.341Z,10.89
2022-09-30T07:35:14.272Z,11.44
2022-09-30T07:36:14.223Z,12.07
2022-09-30T07:37:14.157Z,12.90
2022-09-30T07:38:14.102Z,13.77
2022-09-30T07:39:14.068Z,14.84
2022-09-30T07:40:14.000Z,15.58
2022-09-30T07:41:13.949Z,16.39
2022-09-30T07:42:13.894Z,17.14
2022-09-30T07:43:13.843Z,17.76
2022-09-30T07:44:13.812Z,18.43
2022-09-30T07:45:13.744Z,18.89
2022-09-30T07:46:13.787Z,19.41
2022-09-30T07:47:13.646Z,19.94
2022-09-30T07:48:13.599Z,20.32
2022-09-30T07:49:13.591Z,20.65
2022-09-30T07:50:13.506Z,20.90
2022-09-30T07:51:13.458Z,21.29
2022-09-30T07:52:13.414Z,21.61
2022-09-30T07:53:13.371Z,21.72
2022-09-30T07:54:13.328Z,22.07
2022-09-30T07:55:13.304Z,22.23
2022-09-30T07:56:13.244Z,22.26
2022-09-30T07:57:13.198Z,22.51
2022-09-30T07:58:13.164Z,22.76
2022-09-30T07:59:13.117Z,22.90
2022-09-30T08:00:37.838Z,23.15
2022-09-30T08:01:13.107Z,23.47
2022-09-30T08:02:13.037Z,23.71
2022-09-30T08:03:12.966Z,23.98
2022-09-30T08:04:12.911Z,24.01
2022-09-30T08:05:12.872Z,24.26
2022-09-30T08:06:12.875Z,24.29
2022-09-30T08:07:12.796Z,24.45
2022-09-30T08:08:12.757Z,24.77
2022-09-30T08:09:12.744Z,24.89
2022-09-30T08:10:12.697Z,24.98
2022-09-30T08:11:12.642Z,24.98
2022-09-30T08:12:12.624Z,24.93
2022-09-30T08:13:12.584Z,24.88
2022-09-30T08:14:12.525Z,25.13
2022-09-30T08:15:12.489Z,25.40
2022-09-30T08:16:12.468Z,25.63
2022-09-30T08:17:12.431Z,25.63
2022-09-30T08:18:12.375Z,25.77
2022-09-30T08:19:12.340Z,25.84
2022-09-30T08:20:14.379Z,25.88
2022-09-30T08:21:12.264Z,25.93
2022-09-30T08:22:12.254Z,26.03
2022-09-30T08:23:12.196Z,26.21
2022-09-30T08:24:12.158Z,26.19
2022-09-30T08:25:12.117Z,26.28
2022-09-30T08:26:12.084Z,26.43
2022-09-30T08:27:12.113Z,26.65
2022-09-30T08:28:12.051Z,26.75
2022-09-30T08:29:20.044Z,26.92
2022-09-30T08:30:11.938Z,26.92
2022-09-30T08:31:11.900Z,26.99
2022-09-30T08:32:11.933Z,26.84
2022-09-30T08:33:11.829Z,27.02
2022-09-30T08:34:11.819Z,26.92
2022-09-30T08:35:11.758Z,26.97
2022-09-30T08:36:11.750Z,26.85
2022-09-30T08:37:11.686Z,26.81
2022-09-30T08:38:11.648Z,26.59
2022-09-30T08:39:11.618Z,26.78
2022-09-30T08:40:11.608Z,26.74
2022-09-30T08:41:11.543Z,26.77
2022-09-30T08:42:32.266Z,26.90
2022-09-30T08:43:11.473Z,27.02
2022-09-30T08:44:11.458Z,27.07
2022-09-30T08:45:11.425Z,27.15
2022-09-30T08:46:11.477Z,27.21
2022-09-30T08:47:11.328Z,27.33
2022-09-30T08:48:11.311Z,27.36
2022-09-30T08:49:11.273Z,27.48
2022-09-30T08:50:11.236Z,27.47
2022-09-30T08:51:11.189Z,27.63
2022-09-30T08:52:15.958Z,27.67
2022-09-30T08:53:11.111Z,27.80
2022-09-30T08:54:11.075Z,27.64
2022-09-30T08:55:11.075Z,27.89
2022-09-30T08:56:11.003Z,28.02
2022-09-30T08:57:10.968Z,28.08
2022-09-30T08:58:10.929Z,28.45
2022-09-30T08:59:10.892Z,28.56
2022-09-30T09:00:10.857Z,29.07
2022-09-30T09:01:10.875Z,29.13
2022-09-30T09:02:15.187Z,29.20
2022-09-30T09:03:10.743Z,29.34
2022-09-30T09:04:10.708Z,29.35
2022-09-30T09:05:10.702Z,29.20
2022-09-30T09:06:10.650Z,29.14
2022-09-30T09:07:10.617Z,29.38
2022-09-30T09:08:10.559Z,29.53
2022-09-30T09:09:10.522Z,29.39
2022-09-30T09:10:10.478Z,29.27
2022-09-30T09:11:10.467Z,28.94
2022-09-30T09:12:10.407Z,28.67
2022-09-30T09:13:10.378Z,28.57
2022-09-30T09:14:10.329Z,28.75
2022-09-30T09:15:10.293Z,29.10
2022-09-30T09:16:10.307Z,29.34
2022-09-30T09:17:15.281Z,29.79
2022-09-30T09:18:25.615Z,29.93
2022-09-30T09:19:10.143Z,29.98
2022-09-30T09:20:10.106Z,30.12
2022-09-30T09:21:10.062Z,30.18
2022-09-30T09:22:10.067Z,30.43
2022-09-30T09:23:09.986Z,29.98
2022-09-30T09:24:10.018Z,29.82
2022-09-30T09:25:09.910Z,29.47
2022-09-30T09:26:09.870Z,29.10
2022-09-30T09:27:09.833Z,28.35
2022-09-30T09:28:09.871Z,27.96
2022-09-30T09:29:09.756Z,27.48
2022-09-30T09:30:09.716Z,26.88
2022-09-30T09:31:09.677Z,26.36
2022-09-30T09:32:09.714Z,26.38
2022-09-30T09:33:09.619Z,26.28
2022-09-30T09:34:09.566Z,26.36
2022-09-30T09:35:09.517Z,26.21
2022-09-30T09:36:09.483Z,26.33
2022-09-30T09:37:09.435Z,26.29
2022-09-30T09:38:09.458Z,25.90
2022-09-30T09:39:09.357Z,25.95
2022-09-30T09:40:09.317Z,25.75
2022-09-30T09:41:09.288Z,24.88
2022-09-30T09:42:09.235Z,24.14
2022-09-30T09:43:09.197Z,23.76
2022-09-30T09:44:09.200Z,23.76
2022-09-30T09:45:09.112Z,23.99
2022-09-30T09:46:09.216Z,23.91
2022-09-30T09:47:09.028Z,23.88
2022-09-30T09:48:08.990Z,23.99
2022-09-30T09:49:08.971Z,24.14
2022-09-30T09:50:08.904Z,24.42
2022-09-30T09:51:08.863Z,24.68
2022-09-30T09:52:08.818Z,24.84
2022-09-30T09:53:08.774Z,24.42
2022-09-30T09:54:08.734Z,24.30
2022-09-30T09:55:08.712Z,24.01
2022-09-30T09:56:08.650Z,24.17
2022-09-30T09:57:08.605Z,24.26
2022-09-30T09:58:08.561Z,24.10
2022-09-30T09:59:08.519Z,23.92
2022-09-30T10:00:08.500Z,23.43
2022-09-30T10:01:09.575Z,22.51
2022-09-30T10:02:08.450Z,21.77
2022-09-30T10:03:08.350Z,21.36
2022-09-30T10:04:08.304Z,20.82
2022-09-30T10:05:08.277Z,20.16
2022-09-30T10:06:08.216Z,19.69
2022-09-30T10:07:08.173Z,19.45
2022-09-30T10:08:08.126Z,19.76
2022-09-30T10:09:08.082Z,20.22
2022-09-30T10:10:08.059Z,20.59
2022-09-30T10:11:08.002Z,20.66
2022-09-30T10:12:07.950Z,20.85
2022-09-30T10:13:07.905Z,21.29
2022-09-30T10:14:07.856Z,21.67
2022-09-30T10:15:07.856Z,21.27
2022-09-30T10:16:07.819Z,20.39
2022-09-30T10:17:07.728Z,19.88
2022-09-30T10:18:07.683Z,19.73
2022-09-30T10:19:09.744Z,20.19
2022-09-30T10:20:07.615Z,20.82
2022-09-30T10:21:07.543Z,20.70
2022-09-30T10:22:07.499Z,20.22
2022-09-30T10:23:07.459Z,20.22
2022-09-30T10:24:07.408Z,20.48
2022-09-30T10:25:07.364Z,20.51
2022-09-30T10:26:07.344Z,19.85
2022-09-30T10:27:07.284Z,19.26
2022-09-30T10:28:07.327Z,18.84
2022-09-30T10:29:07.177Z,18.40
2022-09-30T10:30:07.138Z,18.16
2022-09-30T10:31:07.110Z,18.22
2022-09-30T10:32:07.148Z,18.44
2022-09-30T10:33:06.996Z,19.12
2022-09-30T10:34:06.947Z,19.69
2022-09-30T10:35:06.901Z,20.13
2022-09-30T10:36:06.891Z,20.00
2022-09-30T10:37:06.809Z,20.00
2022-09-30T10:38:06.767Z,19.95
2022-09-30T10:39:07.283Z,19.84
2022-09-30T10:40:06.670Z,19.29
2022-09-30T10:41:06.625Z,18.86
2022-09-30T10:42:06.598Z,18.83
2022-09-30T10:43:06.544Z,18.62
2022-09-30T10:44:06.488Z,18.18
2022-09-30T10:45:06.446Z,17.78
2022-09-30T10:46:25.031Z,17.56
2022-09-30T10:47:06.419Z,17.74
2022-09-30T10:48:06.307Z,17.97
2022-09-30T10:49:06.250Z,17.87
2022-09-30T10:50:06.206Z,18.11
2022-09-30T10:51:06.165Z,18.43
2022-09-30T10:52:06.137Z,18.29
2022-09-30T10:53:06.067Z,18.25
2022-09-30T10:54:06.026Z,17.72
2022-09-30T10:55:11.224Z,17.24
2022-09-30T10:56:05.927Z,16.79
2022-09-30T10:57:05.924Z,16.99
2022-09-30T10:58:05.831Z,17.15
2022-09-30T10:59:05.784Z,17.34
2022-09-30T11:00:05.750Z,17.57
2022-09-30T11:01:05.782Z,17.79
2022-09-30T11:02:06.123Z,18.05
2022-09-30T11:03:05.680Z,18.40
2022-09-30T11:04:05.556Z,18.93
2022-09-30T11:05:05.497Z,19.40
2022-09-30T11:06:05.458Z,19.91
2022-09-30T11:07:05.401Z,20.10
2022-09-30T11:08:05.374Z,19.71
2022-09-30T11:09:05.311Z,19.29
2022-09-30T11:10:05.266Z,18.88
2022-09-30T11:11:08.725Z,18.59
2022-09-30T11:12:05.166Z,18.40
2022-09-30T11:13:05.157Z,18.28
2022-09-30T11:14:05.076Z,18.01
2022-09-30T11:15:05.031Z,17.80
2022-09-30T11:16:05.056Z,17.65
2022-09-30T11:17:04.931Z,17.51
2022-09-30T11:18:04.895Z,17.29
2022-09-30T11:19:04.862Z,17.24
2022-09-30T11:20:04.800Z,17.16
2022-09-30T11:21:04.737Z,17.12
2022-09-30T11:22:04.780Z,17.04
2022-09-30T11:23:04.640Z,17.27
2022-09-30T11:24:04.592Z,17.54
2022-09-30T11:25:10.196Z,17.97
2022-09-30T11:26:04.500Z,18.28
2022-09-30T11:27:04.448Z,18.45
2022-09-30T11:28:04.470Z,18.62
2022-09-30T11:29:04.357Z,18.65
2022-09-30T11:30:04.353Z,18.58
2022-09-30T11:31:07.156Z,18.73
2022-09-30T11:32:04.323Z,18.62
2022-09-30T11:33:04.167Z,18.44
2022-09-30T11:34:04.112Z,18.38
2022-09-30T11:35:04.063Z,18.20
2022-09-30T11:36:04.043Z,18.01
2022-09-30T11:37:03.972Z,17.86
2022-09-30T11:38:03.919Z,17.87
2022-09-30T11:39:03.871Z,18.00
2022-09-30T11:40:03.823Z,17.98
2022-09-30T11:41:03.798Z,18.07
2022-09-30T11:42:03.727Z,17.71
2022-09-30T11:43:07.972Z,17.87
2022-09-30T11:44:03.630Z,17.87
2022-09-30T11:45:03.584Z,18.01
2022-09-30T11:46:03.583Z,18.25
2022-09-30T11:47:03.502Z,18.81
2022-09-30T11:48:03.457Z,19.00
2022-09-30T11:49:03.389Z,19.24
2022-09-30T11:50:03.341Z,19.59
2022-09-30T11:51:03.292Z,19.55
2022-09-30T11:52:03.272Z,19.36
2022-09-30T11:53:03.195Z,19.09
2022-09-30T11:54:03.154Z,19.11
2022-09-30T11:55:03.098Z,19.00
2022-09-30T11:56:10.124Z,19.08
2022-09-30T11:57:03.007Z,18.68
2022-09-30T11:58:22.345Z,18.80
2022-09-30T11:59:02.951Z,19.18
2022-09-30T12:00:02.863Z,19.55
2022-09-30T12:01:02.819Z,19.76
2022-09-30T12:02:02.823Z,19.77
2022-09-30T12:03:05.652Z,19.88
2022-09-30T12:04:02.741Z,19.88
2022-09-30T12:05:02.624Z,19.86
2022-09-30T12:06:02.575Z,19.73
2022-09-30T12:07:02.530Z,19.45
2022-09-30T12:08:02.500Z,19.29
2022-09-30T12:09:02.434Z,19.16
2022-09-30T12:10:02.388Z,19.16
2022-09-30T12:11:02.339Z,19.31
2022-09-30T12:12:02.293Z,19.71
2022-09-30T12:13:02.265Z,20.03
2022-09-30T12:14:02.197Z,20.04
2022-09-30T12:15:02.150Z,20.31
2022-09-30T12:16:02.132Z,20.32
2022-09-30T12:17:02.265Z,20.10
2022-09-30T12:18:02.005Z,20.14
2022-09-30T12:19:01.979Z,19.94
2022-09-30T12:20:01.913Z,19.63
2022-09-30T12:21:01.864Z,18.88
2022-09-30T12:22:01.819Z,18.65
2022-09-30T12:23:01.770Z,18.45
2022-09-30T12:24:01.745Z,18.74
2022-09-30T12:25:01.675Z,18.63
2022-09-30T12:26:01.627Z,19.09
2022-09-30T12:27:01.582Z,19.37
2022-09-30T12:28:01.580Z,19.44
2022-09-30T12:29:03.714Z,19.19
2022-09-30T12:30:01.441Z,19.30
2022-09-30T12:31:01.391Z,19.15
2022-09-30T12:32:01.453Z,18.92
2022-09-30T12:33:01.297Z,18.90
2022-09-30T12:34:01.249Z,18.75
2022-09-30T12:35:01.231Z,18.59
2022-09-30T12:36:01.152Z,18.45
2022-09-30T12:37:01.105Z,18.19
2022-09-30T12:38:01.057Z,18.05
2022-09-30T12:39:01.013Z,18.10
2022-09-30T12:40:00.966Z,18.05
2022-09-30T12:41:00.938Z,18.19
2022-09-30T12:42:00.868Z,17.85
2022-09-30T12:43:00.818Z,17.52
2022-09-30T12:44:00.767Z,17.33
2022-09-30T12:45:00.725Z,17.52
2022-09-30T12:46:00.711Z,17.83
2022-09-30T12:47:00.644Z,18.00
2022-09-30T12:48:00.583Z,18.10
2022-09-30T12:49:00.531Z,18.03
2022-09-30T12:50:00.482Z,18.19
2022-09-30T12:51:00.435Z,18.16
2022-09-30T12:52:00.408Z,18.19
2022-09-30T12:53:00.339Z,18.53
2022-09-30T12:54:00.290Z,18.78
2022-09-30T12:55:00.251Z,19.04
2022-09-30T12:56:00.192Z,19.26
2022-09-30T12:57:00.173Z,19.52
2022-09-30T12:58:00.103Z,19.66
2022-09-30T12:59:00.053Z,19.36
2022-09-30T13:00:00.001Z,19.09
2022-09-30T13:00:59.958Z,18.86
2022-09-30T13:01:59.954Z,18.58
2022-09-30T13:02:59.880Z,18.47
2022-09-30T13:03:59.816Z,18.22
2022-09-30T13:04:59.762Z,18.18
2022-09-30T13:05:59.712Z,17.95
2022-09-30T13:06:59.667Z,17.63